Time;durP1;ratioP1;P1;durP2;ratioP2;P2;SDS_P1;SDS_P2;PMS_P1;PMS_P2;Temp;Humidity;BMP_temperature;BMP_pressure;BME280_temperature;BME280_humidity;BME280_pressure;Samples;Min_cycle;Max_cycle;Signal;HPM_P1;HPM_P2
2023/03/06 00:01:00;;;;;;;;;;;3.80;99.90;;;;;;4992994;28;19925;-69
2023/03/06 00:03:26;;;;;;;;;;;3.80;99.90;;;;;;4994763;28;19914;-67
2023/03/06 00:05:56;;;;;;;;;;;3.80;99.90;;;;;;4992338;28;19977;-69
2023/03/06 00:08:22;;;;;;;;;;;3.90;99.90;;;;;;4997231;28;20340;-68
2023/03/06 00:10:47;;;;;;;;;;;3.80;99.90;;;;;;4975525;28;20010;-69
2023/03/06 00:13:13;;;;;;;;;;;3.90;99.90;;;;;;4996241;28;19914;-68
2023/03/06 00:15:39;;;;;;;;;;;3.80;99.90;;;;;;4993210;28;19918;-68
2023/03/06 00:18:05;;;;;;;;;;;3.80;99.90;;;;;;4998124;28;20379;-69
2023/03/06 00:20:31;;;;;;;;;;;3.80;99.90;;;;;;4993184;28;19941;-68
2023/03/06 00:22:57;;;;;;;;;;;3.70;99.90;;;;;;4994906;28;19977;-68
2023/03/06 00:25:22;;;;;;;;;;;3.70;99.90;;;;;;4992358;28;19949;-68
2023/03/06 00:27:48;;;;;;;;;;;3.70;99.90;;;;;;4978488;28;19913;-68
2023/03/06 00:30:16;;;;;;;;;;;3.60;99.90;;;;;;4993693;28;19914;-68
2023/03/06 00:32:42;;;;;;;;;;;3.70;99.90;;;;;;4992806;28;20007;-68
2023/03/06 00:35:08;;;;;;;;;;;3.70;99.90;;;;;;4991510;28;19969;-68
2023/03/06 00:37:33;;;;;;;;;;;3.70;99.90;;;;;;4994191;28;20012;-68
2023/03/06 00:39:59;;;;;;;;;;;3.70;99.90;;;;;;4993980;28;19972;-68
2023/03/06 00:42:24;;;;;;;;;;;3.70;99.90;;;;;;4991369;28;19921;-68
2023/03/06 00:44:50;;;;;;;;;;;3.70;99.90;;;;;;4989720;28;20060;-68
2023/03/06 00:47:18;;;;;;;;;;;3.60;99.90;;;;;;4988646;28;19914;-67
2023/03/06 00:49:43;;;;;;;;;;;3.60;99.90;;;;;;4993200;28;19975;-67
2023/03/06 00:52:09;;;;;;;;;;;3.60;99.90;;;;;;4994459;28;20439;-68
2023/03/06 00:54:35;;;;;;;;;;;3.60;99.90;;;;;;4983001;28;19968;-68
2023/03/06 00:57:00;;;;;;;;;;;3.50;99.90;;;;;;4987967;28;19973;-68
2023/03/06 00:59:26;;;;;;;;;;;3.50;99.90;;;;;;4991420;28;19917;-68
2023/03/06 01:01:52;;;;;;;;;;;3.50;99.90;;;;;;4988867;28;19960;-68
2023/03/06 01:04:17;;;;;;;;;;;3.50;99.90;;;;;;4985975;28;21151;-68
2023/03/06 01:06:43;;;;;;;;;;;3.50;99.90;;;;;;4991849;28;20057;-68
2023/03/06 01:09:08;;;;;;;;;;;3.40;99.90;;;;;;4991091;28;19914;-68
2023/03/06 01:11:34;;;;;;;;;;;3.40;99.90;;;;;;4991420;28;20283;-68
2023/03/06 01:13:59;;;;;;;;;;;3.40;99.90;;;;;;4989709;28;20590;-68
2023/03/06 01:16:25;;;;;;;;;;;3.40;99.90;;;;;;4992262;28;19936;-68
2023/03/06 01:18:50;;;;;;;;;;;3.40;99.90;;;;;;4990789;28;19925;-67
2023/03/06 01:21:16;;;;;;;;;;;3.40;99.90;;;;;;4990703;28;19926;-68
2023/03/06 01:23:41;;;;;;;;;;;3.40;99.90;;;;;;4991496;28;19917;-66
2023/03/06 01:26:07;;;;;;;;;;;3.40;99.90;;;;;;4995164;28;19976;-68
2023/03/06 01:28:33;;;;;;;;;;;3.40;99.90;;;;;;4990573;28;19989;-67
2023/03/06 01:31:00;;;;;;;;;;;3.50;99.90;;;;;;4996087;28;20386;-68
2023/03/06 01:33:26;;;;;;;;;;;3.50;99.90;;;;;;4992951;28;19910;-67
2023/03/06 01:35:51;;;;;;;;;;;3.50;99.90;;;;;;4988176;28;19924;-68
2023/03/06 01:38:17;;;;;;;;;;;3.50;99.90;;;;;;4990840;28;20008;-68
2023/03/06 01:40:42;;;;;;;;;;;3.50;99.90;;;;;;4988709;28;19932;-67
2023/03/06 01:43:09;;;;;;;;;;;3.50;99.90;;;;;;4988204;28;19921;-68
2023/03/06 01:45:34;;;;;;;;;;;3.50;99.90;;;;;;4989148;28;19928;-68
2023/03/06 01:48:00;;;;;;;;;;;3.50;99.90;;;;;;4995222;28;19910;-67
2023/03/06 01:50:25;;;;;;;;;;;3.40;99.90;;;;;;4992992;28;19913;-68
2023/03/06 01:52:52;;;;;;;;;;;3.50;99.90;;;;;;4988757;28;19964;-66
2023/03/06 01:55:23;;;;;;;;;;;3.50;99.90;;;;;;4991079;28;19914;-68
2023/03/06 01:57:52;;;;;;;;;;;3.50;99.90;;;;;;4987207;28;19922;-67
2023/03/06 02:00:19;;;;;;;;;;;3.50;99.90;;;;;;4988700;28;20361;-67
2023/03/06 02:02:48;;;;;;;;;;;3.50;99.90;;;;;;4985989;28;19914;-67
2023/03/06 02:05:13;;;;;;;;;;;3.50;99.90;;;;;;4987323;28;19914;-68
2023/03/06 02:07:40;;;;;;;;;;;3.50;99.90;;;;;;4990012;28;19965;-68
2023/03/06 02:10:06;;;;;;;;;;;3.50;99.90;;;;;;4991251;28;21552;-68
2023/03/06 02:12:32;;;;;;;;;;;3.50;99.90;;;;;;4989546;28;19941;-68
2023/03/06 02:14:57;;;;;;;;;;;3.50;99.90;;;;;;4989474;28;19909;-68
2023/03/06 02:17:23;;;;;;;;;;;3.50;99.90;;;;;;4990366;28;19922;-68
2023/03/06 02:19:53;;;;;;;;;;;3.50;99.90;;;;;;4990747;28;20302;-68
2023/03/06 02:22:19;;;;;;;;;;;3.50;99.90;;;;;;4992729;28;19987;-67
2023/03/06 02:24:45;;;;;;;;;;;3.50;99.90;;;;;;4992610;28;20395;-66
2023/03/06 02:27:11;;;;;;;;;;;3.50;99.90;;;;;;4990967;28;19914;-67
2023/03/06 02:29:36;;;;;;;;;;;3.50;99.90;;;;;;4990634;28;19921;-68
2023/03/06 02:32:02;;;;;;;;;;;3.50;99.90;;;;;;4990116;28;19918;-68
2023/03/06 02:34:28;;;;;;;;;;;3.60;99.90;;;;;;4986786;28;19918;-68
2023/03/06 02:37:02;;;;;;;;;;;3.40;99.90;;;;;;4969647;28;19929;-67
2023/03/06 02:39:30;;;;;;;;;;;3.50;99.90;;;;;;4988829;28;20397;-68
2023/03/06 02:41:55;;;;;;;;;;;3.50;99.90;;;;;;4988699;28;19917;-68
2023/03/06 02:44:22;;;;;;;;;;;3.40;99.90;;;;;;4990515;28;19921;-68
2023/03/06 02:46:47;;;;;;;;;;;3.40;99.90;;;;;;4989820;28;20570;-67
2023/03/06 02:49:12;;;;;;;;;;;3.40;99.90;;;;;;4989429;28;19922;-68
2023/03/06 02:51:38;;;;;;;;;;;3.40;99.90;;;;;;4987587;28;19914;-68
2023/03/06 02:54:03;;;;;;;;;;;3.50;99.90;;;;;;4988834;28;20372;-68
2023/03/06 02:56:29;;;;;;;;;;;3.40;99.90;;;;;;4994003;28;20303;-68
2023/03/06 02:58:54;;;;;;;;;;;3.40;99.90;;;;;;4987906;28;19997;-67
2023/03/06 03:01:20;;;;;;;;;;;3.40;99.90;;;;;;4988751;28;19914;-68
2023/03/06 03:03:45;;;;;;;;;;;3.40;99.90;;;;;;4988035;28;20375;-68
2023/03/06 03:06:11;;;;;;;;;;;3.40;99.90;;;;;;4991192;28;19914;-67
2023/03/06 03:08:36;;;;;;;;;;;3.40;99.90;;;;;;4989935;28;19921;-68
2023/03/06 03:11:02;;;;;;;;;;;3.40;99.90;;;;;;4986642;28;19920;-67
2023/03/06 03:13:28;;;;;;;;;;;3.40;99.90;;;;;;4972488;28;19914;-68
2023/03/06 03:16:04;;;;;;;;;;;3.40;99.90;;;;;;4989736;28;20023;-67
2023/03/06 03:18:29;;;;;;;;;;;3.40;99.90;;;;;;4989985;28;19922;-68
2023/03/06 03:20:55;;;;;;;;;;;3.40;99.90;;;;;;4989624;28;19921;-67
2023/03/06 03:23:20;;;;;;;;;;;3.40;99.90;;;;;;4988889;28;20098;-67
2023/03/06 03:25:46;;;;;;;;;;;3.40;99.90;;;;;;4987769;28;19928;-68
2023/03/06 03:28:11;;;;;;;;;;;3.40;99.90;;;;;;4988184;28;19937;-67
2023/03/06 03:30:37;;;;;;;;;;;3.40;99.90;;;;;;4989791;28;19914;-68
2023/03/06 03:33:03;;;;;;;;;;;3.50;99.90;;;;;;4987956;28;19925;-68
2023/03/06 03:35:28;;;;;;;;;;;3.50;99.90;;;;;;4988394;28;20032;-68
2023/03/06 03:37:54;;;;;;;;;;;3.50;99.90;;;;;;4985500;28;19936;-67
2023/03/06 03:40:19;;;;;;;;;;;3.50;99.90;;;;;;4990014;28;19925;-67
2023/03/06 03:42:45;;;;;;;;;;;3.50;99.90;;;;;;4989745;28;19917;-67
2023/03/06 03:45:10;;;;;;;;;;;3.60;99.90;;;;;;4983004;28;20005;-68
2023/03/06 03:47:36;;;;;;;;;;;3.60;99.90;;;;;;4993325;28;19913;-68
2023/03/06 03:50:01;;;;;;;;;;;3.50;99.90;;;;;;4990527;28;19913;-67
2023/03/06 03:52:27;;;;;;;;;;;3.50;99.90;;;;;;4987565;28;19917;-68
2023/03/06 03:54:52;;;;;;;;;;;3.60;99.90;;;;;;4969031;28;20363;-68
2023/03/06 03:57:17;;;;;;;;;;;3.60;99.90;;;;;;4987412;28;19920;-68
2023/03/06 03:59:43;;;;;;;;;;;3.60;99.90;;;;;;4988820;28;19941;-69
2023/03/06 04:02:08;;;;;;;;;;;3.60;99.90;;;;;;4986911;28;19925;-68
2023/03/06 04:04:34;;;;;;;;;;;3.60;99.90;;;;;;4988740;28;19914;-68
2023/03/06 04:06:59;;;;;;;;;;;3.60;99.90;;;;;;4987410;28;19914;-68
2023/03/06 04:09:25;;;;;;;;;;;3.60;99.90;;;;;;4992458;28;19914;-68
2023/03/06 04:11:50;;;;;;;;;;;3.60;99.90;;;;;;4996043;28;19914;-66
2023/03/06 04:14:16;;;;;;;;;;;3.70;99.90;;;;;;4991951;28;19917;-68
2023/03/06 04:16:41;;;;;;;;;;;3.70;99.90;;;;;;4992181;28;20399;-68
2023/03/06 04:19:07;;;;;;;;;;;3.70;99.90;;;;;;4990773;28;19925;-68
2023/03/06 04:21:32;;;;;;;;;;;3.70;99.90;;;;;;4991797;28;19917;-67
2023/03/06 04:23:57;;;;;;;;;;;3.70;99.90;;;;;;4973291;28;19922;-67
2023/03/06 04:26:23;;;;;;;;;;;3.60;99.90;;;;;;4995166;28;19913;-68
2023/03/06 04:28:48;;;;;;;;;;;3.70;99.90;;;;;;4990528;28;19973;-68
2023/03/06 04:31:14;;;;;;;;;;;3.70;99.90;;;;;;4989101;28;19921;-68
2023/03/06 04:33:39;;;;;;;;;;;3.70;99.90;;;;;;4989803;28;20419;-68
2023/03/06 04:36:05;;;;;;;;;;;3.70;99.90;;;;;;4994445;28;19925;-68
2023/03/06 04:38:30;;;;;;;;;;;3.60;99.90;;;;;;4987203;28;19934;-68
2023/03/06 04:40:56;;;;;;;;;;;3.60;99.90;;;;;;4993136;28;19913;-67
2023/03/06 04:43:21;;;;;;;;;;;3.60;99.90;;;;;;4991505;28;20003;-68
2023/03/06 04:45:47;;;;;;;;;;;;;;;;;;4986206;28;19921;-67
2023/03/06 04:48:13;;;;;;;;;;;;;;;;;;4992107;28;20298;-68
2023/03/06 04:50:39;;;;;;;;;;;;;;;;;;4992892;28;20021;-68
2023/03/06 04:53:05;;;;;;;;;;;3.70;99.90;;;;;;4990464;28;20006;-71
2023/03/06 04:55:30;;;;;;;;;;;3.60;99.90;;;;;;4987039;28;19914;-68
2023/03/06 04:57:55;;;;;;;;;;;3.60;99.90;;;;;;4977454;28;19917;-67
2023/03/06 05:00:29;;;;;;;;;;;3.60;99.90;;;;;;4992748;28;19927;-68
2023/03/06 05:02:55;;;;;;;;;;;;;;;;;;4989812;28;20004;-67
2023/03/06 05:05:20;;;;;;;;;;;3.70;99.90;;;;;;4991614;28;19953;-69
2023/03/06 05:07:46;;;;;;;;;;;3.60;99.90;;;;;;4990655;28;20382;-69
2023/03/06 05:10:13;;;;;;;;;;;3.60;99.90;;;;;;4992489;28;19920;-69
2023/03/06 05:12:39;;;;;;;;;;;3.60;99.90;;;;;;4993677;28;19918;-69
2023/03/06 05:15:05;;;;;;;;;;;3.60;99.90;;;;;;4989648;28;19913;-68
2023/03/06 05:17:30;;;;;;;;;;;3.60;99.90;;;;;;4992235;28;19922;-70
2023/03/06 05:19:56;;;;;;;;;;;3.60;99.90;;;;;;4970682;28;19920;-68
2023/03/06 05:22:21;;;;;;;;;;;3.60;99.90;;;;;;4976076;28;19913;-69
2023/03/06 05:24:46;;;;;;;;;;;3.60;99.90;;;;;;4986456;28;19925;-69
2023/03/06 05:27:12;;;;;;;;;;;3.60;99.90;;;;;;4988702;28;20020;-69
2023/03/06 05:29:37;;;;;;;;;;;3.60;99.90;;;;;;4995185;28;19937;-69
2023/03/06 05:32:03;;;;;;;;;;;3.70;99.90;;;;;;4987887;28;19922;-68
2023/03/06 05:34:28;;;;;;;;;;;3.60;99.90;;;;;;4990885;28;20951;-68
2023/03/06 05:36:54;;;;;;;;;;;3.60;99.90;;;;;;4992767;28;19929;-67
2023/03/06 05:39:19;;;;;;;;;;;3.60;99.90;;;;;;4990772;28;19926;-68
2023/03/06 05:41:45;;;;;;;;;;;3.70;99.90;;;;;;4990584;28;19918;-68
2023/03/06 05:44:10;;;;;;;;;;;3.60;99.90;;;;;;4989987;28;19978;-67
2023/03/06 05:46:36;;;;;;;;;;;3.60;99.90;;;;;;4985049;28;19944;-69
2023/03/06 05:49:02;;;;;;;;;;;3.70;99.90;;;;;;4990891;28;19991;-69
2023/03/06 05:51:27;;;;;;;;;;;3.60;99.90;;;;;;4989056;28;19913;-69
2023/03/06 05:53:53;;;;;;;;;;;3.60;99.90;;;;;;4989754;28;19924;-70
2023/03/06 05:56:20;;;;;;;;;;;3.60;99.90;;;;;;4990278;28;19921;-70
2023/03/06 05:58:46;;;;;;;;;;;3.60;99.90;;;;;;4976569;28;20311;-69
2023/03/06 06:01:13;;;;;;;;;;;3.70;99.90;;;;;;4983513;28;19914;-69
2023/03/06 06:03:39;;;;;;;;;;;3.60;99.90;;;;;;4986508;28;19948;-64
2023/03/06 06:06:05;;;;;;;;;;;3.60;99.90;;;;;;4969739;28;20291;-65
2023/03/06 06:08:30;;;;;;;;;;;3.70;99.90;;;;;;4985949;28;19921;-65
2023/03/06 06:10:56;;;;;;;;;;;3.70;99.90;;;;;;4966264;28;20096;-62
2023/03/06 06:13:21;;;;;;;;;;;3.70;99.90;;;;;;4988667;28;19921;-65
2023/03/06 06:15:47;;;;;;;;;;;3.70;99.90;;;;;;4989431;28;20415;-64
2023/03/06 06:18:12;;;;;;;;;;;3.70;99.90;;;;;;4988379;28;19984;-65
2023/03/06 06:20:38;;;;;;;;;;;3.70;99.90;;;;;;4988596;28;19925;-64
2023/03/06 06:23:03;;;;;;;;;;;3.70;99.90;;;;;;4982863;28;20008;-65
2023/03/06 06:25:29;;;;;;;;;;;3.70;99.90;;;;;;4986722;28;19922;-65
2023/03/06 06:27:55;;;;;;;;;;;3.70;99.90;;;;;;4988541;28;19960;-66
2023/03/06 06:30:21;;;;;;;;;;;3.70;99.90;;;;;;4986762;28;19957;-66
2023/03/06 06:32:47;;;;;;;;;;;3.70;99.90;;;;;;4987031;28;20557;-65
2023/03/06 06:35:12;;;;;;;;;;;3.70;99.90;;;;;;4988923;28;20446;-66
2023/03/06 06:37:38;;;;;;;;;;;3.70;99.90;;;;;;4986112;28;19925;-64
2023/03/06 06:40:03;;;;;;;;;;;3.70;99.90;;;;;;4983629;28;20466;-65
2023/03/06 06:42:29;;;;;;;;;;;3.70;99.90;;;;;;4985172;28;19918;-64
2023/03/06 06:44:54;;;;;;;;;;;3.70;99.90;;;;;;4984424;28;20360;-65
2023/03/06 06:47:20;;;;;;;;;;;3.60;99.90;;;;;;4988852;28;20358;-65
2023/03/06 06:49:48;;;;;;;;;;;3.60;99.90;;;;;;4986065;28;19914;-64
2023/03/06 06:52:13;;;;;;;;;;;3.70;99.90;;;;;;4986612;28;19936;-65
2023/03/06 06:54:39;;;;;;;;;;;3.70;99.90;;;;;;4988394;28;20005;-65
2023/03/06 06:57:04;;;;;;;;;;;3.70;99.90;;;;;;4971789;28;20283;-65
2023/03/06 06:59:30;;;;;;;;;;;3.70;99.90;;;;;;4993848;28;19949;-65
2023/03/06 07:01:55;;;;;;;;;;;3.70;99.90;;;;;;4989749;28;19909;-65
2023/03/06 07:04:21;;;;;;;;;;;3.80;99.90;;;;;;4988520;28;20339;-65
2023/03/06 07:06:47;;;;;;;;;;;3.70;99.90;;;;;;4985465;28;19913;-64
2023/03/06 07:09:12;;;;;;;;;;;3.70;99.90;;;;;;4987593;28;19914;-65
2023/03/06 07:11:38;;;;;;;;;;;3.70;99.90;;;;;;4993267;28;19909;-65
2023/03/06 07:14:04;;;;;;;;;;;3.80;99.90;;;;;;4977097;28;19922;-65
2023/03/06 07:16:29;;;;;;;;;;;3.80;99.90;;;;;;4989050;28;20280;-65
2023/03/06 07:18:55;;;;;;;;;;;3.90;99.90;;;;;;4990945;28;20000;-64
2023/03/06 07:21:20;;;;;;;;;;;3.80;99.90;;;;;;4991086;28;19909;-64
2023/03/06 07:23:46;;;;;;;;;;;3.90;99.90;;;;;;4988042;28;20016;-64
2023/03/06 07:26:11;;;;;;;;;;;3.90;99.90;;;;;;4976425;28;19944;-65
2023/03/06 07:28:37;;;;;;;;;;;3.90;99.90;;;;;;4990504;28;20295;-65
2023/03/06 07:31:06;;;;;;;;;;;4.00;99.90;;;;;;4991928;28;19953;-64
2023/03/06 07:33:32;;;;;;;;;;;4.00;99.90;;;;;;4986572;28;20021;-65
2023/03/06 07:35:57;;;;;;;;;;;4.00;99.90;;;;;;4977701;28;19917;-64
2023/03/06 07:38:23;;;;;;;;;;;4.00;99.90;;;;;;4989703;28;19918;-65
2023/03/06 07:40:49;;;;;;;;;;;4.00;99.90;;;;;;4980231;28;19914;-65
2023/03/06 07:43:15;;;;;;;;;;;4.00;99.90;;;;;;4991076;28;20327;-65
2023/03/06 07:45:40;;;;;;;;;;;3.90;99.90;;;;;;4993269;28;19910;-65
2023/03/06 07:48:05;;;;;;;;;;;4.00;99.90;;;;;;4993941;28;20386;-64
2023/03/06 07:50:31;;;;;;;;;;;4.00;99.90;;;;;;4993664;28;19910;-65
2023/03/06 07:52:57;;;;;;;;;;;4.10;99.90;;;;;;4991869;28;19963;-64
2023/03/06 07:55:22;;;;;;;;;;;4.10;99.90;;;;;;4995514;28;19914;-66
2023/03/06 07:57:49;;;;;;;;;;;4.10;99.90;;;;;;4992428;28;19917;-65
2023/03/06 08:00:15;;;;;;;;;;;4.10;99.90;;;;;;4994862;28;19921;-64
2023/03/06 08:02:41;;;;;;;;;;;4.10;99.90;;;;;;4975561;28;19914;-69
2023/03/06 08:05:08;;;;;;;;;;;4.10;99.90;;;;;;4994612;28;19917;-64
2023/03/06 08:07:34;;;;;;;;;;;4.10;99.90;;;;;;4992056;28;19910;-63
2023/03/06 08:09:59;;;;;;;;;;;4.10;99.90;;;;;;4994768;28;20001;-65
2023/03/06 08:12:25;;;;;;;;;;;4.20;99.90;;;;;;4991032;28;20379;-65
2023/03/06 08:14:50;;;;;;;;;;;4.30;99.90;;;;;;4993215;28;20356;-64
2023/03/06 08:17:16;;;;;;;;;;;4.20;99.90;;;;;;4975274;28;19972;-65
2023/03/06 08:19:41;;;;;;;;;;;4.20;99.90;;;;;;4993307;28;19968;-64
2023/03/06 08:22:07;;;;;;;;;;;4.30;99.90;;;;;;4990470;28;20005;-64
2023/03/06 08:24:33;;;;;;;;;;;4.20;99.90;;;;;;4996824;28;20018;-65
2023/03/06 08:26:58;;;;;;;;;;;4.30;99.90;;;;;;4992107;28;19910;-65
2023/03/06 08:29:24;;;;;;;;;;;4.40;99.90;;;;;;4975789;28;19956;-65
2023/03/06 08:31:49;;;;;;;;;;;4.40;99.90;;;;;;4988820;28;20038;-64
2023/03/06 08:34:16;;;;;;;;;;;4.50;99.90;;;;;;4970746;28;19910;-65
2023/03/06 08:36:41;;;;;;;;;;;4.60;99.90;;;;;;4975698;28;19953;-65
2023/03/06 08:39:07;;;;;;;;;;;4.60;99.90;;;;;;4992675;28;19945;-65
2023/03/06 08:41:33;;;;;;;;;;;4.70;99.90;;;;;;4954875;28;19964;-65
2023/03/06 08:43:59;;;;;;;;;;;4.80;99.90;;;;;;4973199;28;19905;-65
2023/03/06 08:46:25;;;;;;;;;;;4.90;99.90;;;;;;4971540;28;19912;-65
2023/03/06 08:48:51;;;;;;;;;;;5.00;99.90;;;;;;4989717;28;19910;-64
2023/03/06 08:51:17;;;;;;;;;;;4.90;99.90;;;;;;4992567;28;19917;-64
2023/03/06 08:53:42;;;;;;;;;;;4.80;99.90;;;;;;4976717;28;19921;-65
2023/03/06 08:56:15;;;;;;;;;;;4.80;99.90;;;;;;4991615;28;19909;-65
2023/03/06 08:58:41;;;;;;;;;;;4.80;99.90;;;;;;4992585;28;19940;-65
2023/03/06 09:01:11;;;;;;;;;;;4.80;99.90;;;;;;4991306;28;19922;-65
2023/03/06 09:03:37;;;;;;;;;;;4.90;99.90;;;;;;4993854;28;19967;-65
2023/03/06 09:06:02;;;;;;;;;;;5.00;99.90;;;;;;4969316;28;19921;-65
2023/03/06 09:08:27;;;;;;;;;;;5.00;99.90;;;;;;4992570;28;19910;-65
2023/03/06 09:10:53;;;;;;;;;;;5.10;99.90;;;;;;4990354;28;19984;-64
2023/03/06 09:13:18;;;;;;;;;;;5.00;99.90;;;;;;4992036;28;19906;-64
2023/03/06 09:15:44;;;;;;;;;;;5.10;99.90;;;;;;4992500;28;19972;-63
2023/03/06 09:18:09;;;;;;;;;;;5.10;99.90;;;;;;4995874;28;20278;-65
2023/03/06 09:20:35;;;;;;;;;;;5.00;99.90;;;;;;4991747;28;19999;-64
2023/03/06 09:23:00;;;;;;;;;;;5.00;99.90;;;;;;4991204;28;19934;-64
2023/03/06 09:25:25;;;;;;;;;;;5.10;99.90;;;;;;4973814;28;19926;-64
2023/03/06 09:27:51;;;;;;;;;;;5.00;99.90;;;;;;4991492;28;19990;-63
2023/03/06 09:30:17;;;;;;;;;;;5.00;99.90;;;;;;4993398;28;19913;-64
2023/03/06 09:32:42;;;;;;;;;;;4.90;99.90;;;;;;4973645;28;19913;-64
2023/03/06 09:35:10;;;;;;;;;;;5.00;99.90;;;;;;4991154;28;20211;-65
2023/03/06 09:37:35;;;;;;;;;;;4.90;99.90;;;;;;4992318;28;20005;-65
2023/03/06 09:40:01;;;;;;;;;;;4.90;99.90;;;;;;4992326;28;19905;-65
2023/03/06 09:42:27;;;;;;;;;;;5.00;99.90;;;;;;4991001;28;19922;-65
2023/03/06 09:44:58;;;;;;;;;;;5.10;99.90;;;;;;4990404;28;19972;-65
2023/03/06 09:47:27;;;;;;;;;;;5.20;99.90;;;;;;4992835;28;19910;-66
2023/03/06 09:49:52;;;;;;;;;;;5.30;99.90;;;;;;4991201;28;19945;-65
2023/03/06 09:52:35;;;;;;;;;;;5.30;99.90;;;;;;4975653;28;19953;-65
2023/03/06 09:55:03;;;;;;;;;;;5.40;99.90;;;;;;4990987;28;20394;-65
2023/03/06 09:57:35;;;;;;;;;;;5.30;99.90;;;;;;4991594;28;20322;-65
2023/03/06 10:00:05;;;;;;;;;;;5.30;99.90;;;;;;4991255;28;19910;-66
2023/03/06 10:02:40;;;;;;;;;;;5.30;99.90;;;;;;4990070;28;19913;-65
2023/03/06 10:05:09;;;;;;;;;;;5.30;99.90;;;;;;4990595;28;20252;-65
2023/03/06 10:07:41;;;;;;;;;;;5.30;99.90;;;;;;4998762;28;20483;-69
2023/03/06 10:10:09;;;;;;;;;;;5.20;99.90;;;;;;4990628;28;20717;-65
2023/03/06 10:12:37;;;;;;;;;;;5.20;99.90;;;;;;4990114;28;19910;-65
2023/03/06 10:15:21;;;;;;;;;;;5.30;99.90;;;;;;4973918;28;19905;-65
2023/03/06 10:17:46;;;;;;;;;;;5.40;99.90;;;;;;4975422;28;19957;-64
2023/03/06 10:20:17;;;;;;;;;;;5.40;99.90;;;;;;4992146;28;19910;-65
2023/03/06 10:22:55;;;;;;;;;;;5.40;99.90;;;;;;4987695;28;19916;-68
2023/03/06 10:25:20;;;;;;;;;;;5.50;99.90;;;;;;4991663;28;19918;-65
2023/03/06 10:27:47;;;;;;;;;;;5.50;99.90;;;;;;4995159;28;19910;-64
2023/03/06 10:30:31;;;;;;;;;;;5.50;99.90;;;;;;4992732;28;19913;-65
2023/03/06 10:32:58;;;;;;;;;;;5.60;99.90;;;;;;4974144;28;20315;-64
2023/03/06 10:35:29;;;;;;;;;;;5.60;99.90;;;;;;4990314;28;19918;-64
2023/03/06 10:37:59;;;;;;;;;;;5.50;99.90;;;;;;4989410;28;20004;-65
2023/03/06 10:40:29;;;;;;;;;;;5.60;99.90;;;;;;4991125;28;19910;-65
2023/03/06 10:42:55;;;;;;;;;;;5.70;99.90;;;;;;4990265;28;19916;-65
2023/03/06 10:45:20;;;;;;;;;;;5.70;99.90;;;;;;4989267;28;20008;-65
2023/03/06 10:47:46;;;;;;;;;;;5.60;99.90;;;;;;4989703;28;19918;-65
2023/03/06 10:50:26;;;;;;;;;;;5.70;99.90;;;;;;4990101;28;19909;-63
2023/03/06 10:52:59;;;;;;;;;;;5.80;99.90;;;;;;4988000;28;19914;-64
2023/03/06 10:55:29;;;;;;;;;;;5.70;99.90;;;;;;4988207;28;19913;-64
2023/03/06 10:57:54;;;;;;;;;;;5.70;99.90;;;;;;4990114;28;19950;-65
2023/03/06 11:00:25;;;;;;;;;;;5.70;99.90;;;;;;4991515;28;19951;-65
2023/03/06 11:03:03;;;;;;;;;;;5.60;99.90;;;;;;4990059;28;19914;-64
2023/03/06 11:05:28;;;;;;;;;;;5.50;99.90;;;;;;4968191;28;19954;-64
2023/03/06 11:08:00;;;;;;;;;;;5.50;99.90;;;;;;4989034;28;20316;-64
2023/03/06 11:10:27;;;;;;;;;;;5.50;99.90;;;;;;4990387;28;20295;-65
2023/03/06 11:12:56;;;;;;;;;;;5.50;99.90;;;;;;4989624;28;19917;-65
2023/03/06 11:15:23;;;;;;;;;;;5.50;99.90;;;;;;4976431;28;20377;-64
2023/03/06 11:17:51;;;;;;;;;;;5.50;99.90;;;;;;4993131;28;19984;-63
2023/03/06 11:20:21;;;;;;;;;;;5.60;99.90;;;;;;4993931;28;19920;-65
2023/03/06 11:22:53;;;;;;;;;;;5.50;99.90;;;;;;4994102;28;20334;-65
2023/03/06 11:25:20;;;;;;;;;;;5.50;99.90;;;;;;4995380;28;19945;-65
2023/03/06 11:27:51;;;;;;;;;;;5.50;99.90;;;;;;4994975;28;19910;-65
2023/03/06 11:30:25;;;;;;;;;;;5.50;99.90;;;;;;4995915;28;19949;-65
2023/03/06 11:33:13;;;;;;;;;;;5.50;99.90;;;;;;4994285;28;19921;-66
2023/03/06 11:35:46;;;;;;;;;;;5.50;99.90;;;;;;4997623;28;20384;-65
2023/03/06 11:38:11;;;;;;;;;;;5.60;99.90;;;;;;4977525;28;19917;-65
2023/03/06 11:40:42;;;;;;;;;;;5.50;99.90;;;;;;4995158;28;20426;-65
2023/03/06 11:43:15;;;;;;;;;;;5.50;99.90;;;;;;4994047;28;19920;-65
2023/03/06 11:45:40;;;;;;;;;;;5.60;99.90;;;;;;4995125;28;19956;-65
2023/03/06 11:48:12;;;;;;;;;;;5.60;99.90;;;;;;4995144;28;19914;-66
2023/03/06 11:50:41;;;;;;;;;;;5.50;99.90;;;;;;4995408;28;19913;-65
2023/03/06 11:53:10;;;;;;;;;;;5.40;99.90;;;;;;4973139;28;19961;-66
2023/03/06 11:55:54;;;;;;;;;;;5.40;99.90;;;;;;4992585;28;19941;-65
2023/03/06 11:58:49;;;;;;;;;;;5.40;99.90;;;;;;4990216;28;19928;-65
2023/03/06 12:01:17;;;;;;;;;;;5.50;99.90;;;;;;4921942;28;20424;-63
2023/03/06 12:03:48;;;;;;;;;;;5.50;99.90;;;;;;4994580;28;19992;-65
2023/03/06 12:06:33;;;;;;;;;;;5.60;99.90;;;;;;4995730;28;19918;-63
2023/03/06 12:09:03;;;;;;;;;;;5.50;99.90;;;;;;4988400;28;19997;-65
2023/03/06 12:11:37;;;;;;;;;;;5.60;99.90;;;;;;4992601;28;19914;-65
2023/03/06 12:14:18;;;;;;;;;;;5.60;99.90;;;;;;4993797;28;19914;-65
2023/03/06 12:16:57;;;;;;;;;;;5.60;99.90;;;;;;4988158;28;20344;-65
2023/03/06 12:19:39;;;;;;;;;;;5.80;99.90;;;;;;4987278;28;19922;-64
2023/03/06 12:22:08;;;;;;;;;;;5.80;99.90;;;;;;4988385;28;19913;-65
2023/03/06 12:24:33;;;;;;;;;;;5.90;99.90;;;;;;4991768;28;20426;-65
2023/03/06 12:27:11;;;;;;;;;;;5.90;99.90;;;;;;4993404;28;19996;-66
2023/03/06 12:29:44;;;;;;;;;;;5.90;99.90;;;;;;4992281;28;20360;-66
2023/03/06 12:32:13;;;;;;;;;;;5.90;99.90;;;;;;4998729;28;20485;-65
2023/03/06 12:34:50;;;;;;;;;;;5.80;99.90;;;;;;4973752;28;19922;-65
2023/03/06 12:37:20;;;;;;;;;;;5.70;99.90;;;;;;4990375;28;19965;-65
2023/03/06 12:39:55;;;;;;;;;;;5.80;99.90;;;;;;4992749;28;19929;-66
2023/03/06 12:42:23;;;;;;;;;;;5.80;99.90;;;;;;4988194;28;19922;-64
2023/03/06 12:45:08;;;;;;;;;;;5.90;99.90;;;;;;4993282;28;19914;-66
2023/03/06 12:47:37;;;;;;;;;;;5.90;99.90;;;;;;4992478;28;20291;-64
2023/03/06 12:50:07;;;;;;;;;;;5.90;99.90;;;;;;4993380;28;20287;-64
2023/03/06 12:52:32;;;;;;;;;;;5.90;99.90;;;;;;4991428;28;20295;-65
2023/03/06 12:55:00;;;;;;;;;;;5.90;99.90;;;;;;4994487;28;19914;-65
2023/03/06 12:57:25;;;;;;;;;;;6.00;99.90;;;;;;4991935;28;19914;-65
2023/03/06 12:59:51;;;;;;;;;;;6.10;99.90;;;;;;4993613;28;20299;-66
2023/03/06 13:02:35;;;;;;;;;;;6.10;99.90;;;;;;4989290;28;19913;-65
2023/03/06 13:05:13;;;;;;;;;;;6.20;99.90;;;;;;4994223;28;19920;-65
2023/03/06 13:07:58;;;;;;;;;;;6.20;99.90;;;;;;4990560;28;19918;-65
2023/03/06 13:10:29;;;;;;;;;;;6.30;99.90;;;;;;4978357;28;20366;-65
2023/03/06 13:13:13;;;;;;;;;;;6.30;99.90;;;;;;4990386;28;20439;-66
2023/03/06 13:16:02;;;;;;;;;;;6.40;99.90;;;;;;4992526;28;19920;-65
2023/03/06 13:18:31;;;;;;;;;;;6.30;99.90;;;;;;4992223;28;20374;-66
2023/03/06 13:20:57;;;;;;;;;;;6.40;99.90;;;;;;4990423;28;19921;-66
2023/03/06 13:23:32;;;;;;;;;;;6.40;99.90;;;;;;4989088;28;20284;-65
2023/03/06 13:25:58;;;;;;;;;;;6.40;99.90;;;;;;4992543;28;19964;-65
2023/03/06 13:28:46;;;;;;;;;;;6.30;99.90;;;;;;4993672;28;20021;-64
2023/03/06 13:31:12;;;;;;;;;;;6.10;99.90;;;;;;4989017;28;19918;-66
2023/03/06 13:33:38;;;;;;;;;;;6.00;99.90;;;;;;4977037;28;19968;-66
2023/03/06 13:36:15;;;;;;;;;;;6.00;99.90;;;;;;4994340;28;19946;-66
2023/03/06 13:38:41;;;;;;;;;;;5.90;99.90;;;;;;4994416;28;19972;-66
2023/03/06 13:41:21;;;;;;;;;;;5.80;99.90;;;;;;4991378;28;19918;-66
2023/03/06 13:43:54;;;;;;;;;;;5.80;99.90;;;;;;4988171;28;19914;-65
2023/03/06 13:46:27;;;;;;;;;;;5.80;99.90;;;;;;4991717;28;19918;-64
2023/03/06 13:49:02;;;;;;;;;;;5.90;99.90;;;;;;4990943;28;19917;-66
2023/03/06 13:51:30;;;;;;;;;;;5.90;99.90;;;;;;4986108;28;20430;-66
2023/03/06 13:53:59;;;;;;;;;;;5.80;99.90;;;;;;4991806;28;19961;-66
2023/03/06 13:56:46;;;;;;;;;;;5.70;99.90;;;;;;4990658;28;20027;-66
2023/03/06 13:59:32;;;;;;;;;;;5.80;99.90;;;;;;4991267;28;20319;-66
2023/03/06 14:02:00;;;;;;;;;;;5.90;99.90;;;;;;4990785;28;19913;-65
2023/03/06 14:04:37;;;;;;;;;;;6.00;99.90;;;;;;4990734;28;19984;-65
2023/03/06 14:07:05;;;;;;;;;;;6.00;99.90;;;;;;4992527;28;19917;-66
2023/03/06 14:09:36;;;;;;;;;;;6.10;99.90;;;;;;4991989;28;20407;-66
2023/03/06 14:12:07;;;;;;;;;;;6.10;99.90;;;;;;4989778;28;20336;-64
2023/03/06 14:14:34;;;;;;;;;;;6.00;99.90;;;;;;4996642;28;19913;-65
2023/03/06 14:17:01;;;;;;;;;;;6.00;99.90;;;;;;4992860;28;19917;-65
2023/03/06 14:19:29;;;;;;;;;;;6.00;99.90;;;;;;4989558;28;19925;-66
2023/03/06 14:21:56;;;;;;;;;;;6.10;99.90;;;;;;4995180;28;19924;-66
2023/03/06 14:24:28;;;;;;;;;;;6.10;99.90;;;;;;4990837;28;19928;-64
2023/03/06 14:26:54;;;;;;;;;;;6.20;99.90;;;;;;4977693;28;19918;-65
2023/03/06 14:29:20;;;;;;;;;;;6.10;99.90;;;;;;4987281;28;19922;-66
2023/03/06 14:31:48;;;;;;;;;;;6.10;99.90;;;;;;4986378;28;19921;-65
2023/03/06 14:34:25;;;;;;;;;;;6.10;99.90;;;;;;4987775;28;19913;-66